Time;durP1;ratioP1;P1;durP2;ratioP2;P2;SDS_P1;SDS_P2;PMS_P1;PMS_P2;Temp;Humidity;BMP_temperature;BMP_pressure;BME280_temperature;BME280_humidity;BME280_pressure;Samples;Min_cycle;Max_cycle;Signal;HPM_P1;HPM_P2
2022/10/01 00:01:13;;;;;;;;;4.00;4.00;;;;;14.92;61.60;100171.53;5075731;27;45493;-39
2022/10/01 00:03:39;;;;;;;;;2.25;2.25;;;;;14.90;63.26;100157.59;5084179;27;45285;-39
2022/10/01 00:06:16;;;;;;;;;5.00;3.50;;;;;14.90;62.81;100152.34;5091035;27;46104;-39
2022/10/01 00:08:43;;;;;;;;;5.00;5.00;;;;;14.92;62.19;100158.38;5088572;27;45232;-39
2022/10/01 00:11:17;;;;;;;;;11.00;8.25;;;;;14.93;61.81;100165.34;5079835;27;45276;-39
2022/10/01 00:13:43;;;;;;;;;7.00;5.00;;;;;14.94;62.66;100157.38;5076226;27;45312;-39
2022/10/01 00:16:14;;;;;;;;;6.00;4.00;;;;;14.95;62.74;100145.03;5098679;27;45576;-39
2022/10/01 00:18:41;;;;;;;;;7.50;4.25;;;;;14.98;61.42;100143.09;5101896;27;45243;-39
2022/10/01 00:21:08;;;;;;;;;2.00;2.00;;;;;15.00;62.57;100135.94;5093438;27;45486;-39
2022/10/01 00:23:33;;;;;;;;;3.00;3.00;;;;;15.03;62.82;100142.81;5072297;27;45461;-39
2022/10/01 00:26:19;;;;;;;;;4.00;4.00;;;;;15.05;62.28;100133.06;5092422;27;46388;-40
2022/10/01 00:28:46;;;;;;;;;3.50;3.50;;;;;15.06;62.55;100134.75;5082538;27;45324;-39
2022/10/01 00:31:13;;;;;;;;;3.00;1.50;;;;;15.06;61.96;100112.81;5087810;27;45406;-39
2022/10/01 00:33:39;;;;;;;;;5.75;3.25;;;;;15.06;61.69;100118.09;5089331;27;47264;-40
2022/10/01 00:36:06;;;;;;;;;7.75;5.00;;;;;15.07;61.97;100125.91;5096973;27;45815;-39
2022/10/01 00:38:32;;;;;;;;;9.00;4.50;;;;;15.09;62.47;100144.28;5077708;27;45245;-39
2022/10/01 00:40:58;;;;;;;;;12.75;8.00;;;;;15.08;62.54;100147.84;5085732;27;45507;-39
2022/10/01 00:43:26;;;;;;;;;11.50;9.00;;;;;15.08;62.61;100124.13;5090738;27;45483;-39
2022/10/01 00:45:55;;;;;;;;;14.50;9.75;;;;;15.06;62.74;100118.94;5086512;27;46227;-39
2022/10/01 00:48:21;;;;;;;;;9.50;5.75;;;;;15.08;62.45;100116.22;5064461;27;45752;-39
2022/10/01 00:50:48;;;;;;;;;11.00;6.25;;;;;15.09;62.31;100120.56;5079126;27;45455;-39
2022/10/01 00:53:14;;;;;;;;;12.25;9.25;;;;;15.08;62.88;100122.31;5083309;27;45203;-40
2022/10/01 00:55:50;;;;;;;;;6.75;5.75;;;;;15.08;63.21;100117.06;5075546;27;46212;-40
2022/10/01 00:58:17;;;;;;;;;5.25;5.25;;;;;15.04;62.46;100112.91;5064033;28;45550;-39
2022/10/01 01:00:44;;;;;;;;;5.50;4.75;;;;;15.05;63.30;100101.44;5083792;27;45392;-39
2022/10/01 01:03:10;;;;;;;;;4.25;2.75;;;;;15.04;63.58;100118.16;5065455;27;47912;-39
2022/10/01 01:05:36;;;;;;;;;5.75;4.25;;;;;15.03;63.44;100111.19;5090244;27;46178;-39
2022/10/01 01:08:02;;;;;;;;;4.25;4.00;;;;;15.00;64.00;100101.69;5081870;27;74392;-38
2022/10/01 01:10:28;;;;;;;;;5.00;5.00;;;;;14.95;63.87;100109.00;5066041;27;59811;-38
2022/10/01 01:13:05;;;;;;;;;3.00;2.50;;;;;14.90;64.93;100097.84;5090996;27;45434;-38
2022/10/01 01:16:02;;;;;;;;;3.50;3.25;;;;;14.85;64.50;100099.88;5078517;27;45422;-39
2022/10/01 01:18:35;;;;;;;;;6.75;5.00;;;;;14.82;65.55;100110.63;5077743;27;45937;-39
2022/10/01 01:21:12;;;;;;;;;2.25;2.25;;;;;14.78;65.81;100095.91;5078727;27;45342;-39
2022/10/01 01:24:01;;;;;;;;;1.00;1.00;;;;;14.80;64.63;100113.34;5096775;27;45766;-39
2022/10/01 01:26:35;;;;;;;;;5.50;3.00;;;;;14.74;64.74;100100.47;5089068;27;46042;-39
2022/10/01 01:29:05;;;;;;;;;4.50;3.00;;;;;14.79;65.92;100098.44;5078297;27;45765;-39
2022/10/01 01:31:36;;;;;;;;;2.50;2.50;;;;;14.83;65.52;100096.50;5073202;27;45411;-39
2022/10/01 01:34:02;;;;;;;;;3.00;2.50;;;;;14.84;65.83;100089.44;5070369;27;45530;-39
2022/10/01 01:36:31;;;;;;;;;4.00;2.75;;;;;14.85;65.46;100068.28;5082148;27;45979;-39
2022/10/01 01:39:05;;;;;;;;;5.75;3.75;;;;;14.88;65.97;100062.84;5065182;28;45824;-39
2022/10/01 01:41:34;;;;;;;;;4.25;3.00;;;;;14.89;65.76;100063.69;5078048;27;45360;-39
2022/10/01 01:44:02;;;;;;;;;4.50;1.75;;;;;14.89;65.82;100083.00;5063028;27;45545;-39
2022/10/01 01:46:32;;;;;;;;;2.25;2.00;;;;;14.90;64.83;100058.34;5070578;27;45258;-39
2022/10/01 01:48:59;;;;;;;;;2.25;2.25;;;;;14.90;66.41;100057.50;5075435;27;45427;-39
2022/10/01 01:51:32;;;;;;;;;1.50;1.50;;;;;14.93;66.15;100068.72;5067499;28;45311;-40
2022/10/01 01:53:58;;;;;;;;;2.25;1.50;;;;;14.96;65.04;100075.56;5077545;27;45532;-39
2022/10/01 01:56:23;;;;;;;;;1.75;1.75;;;;;14.98;65.36;100064.03;5082329;27;67307;-39
2022/10/01 01:58:49;;;;;;;;;1.00;1.00;;;;;14.98;65.26;100052.66;5066729;28;45448;-39
2022/10/01 02:01:53;;;;;;;;;2.25;2.00;;;;;14.98;65.83;100066.66;5082084;27;68292;-39
2022/10/01 02:04:43;;;;;;;;;1.50;0.50;;;;;14.99;65.91;100071.00;5015193;28;71967;-39
2022/10/01 02:07:20;;;;;;;;;3.00;1.00;;;;;15.04;65.60;100067.25;5013137;28;46559;-40
2022/10/01 02:09:55;;;;;;;;;0.50;0.50;;;;;15.07;66.14;100070.56;5073670;27;45854;-39
2022/10/01 02:12:40;;;;;;;;;0.00;0.00;;;;;15.10;65.47;100045.81;5074988;27;45343;-39
2022/10/01 02:15:24;;;;;;;;;0.00;0.00;;;;;15.14;65.53;100060.53;5076784;27;45830;-39
2022/10/01 02:18:01;;;;;;;;;0.75;0.00;;;;;15.16;65.68;100063.94;5086852;27;47006;-39
2022/10/01 02:20:30;;;;;;;;;0.25;0.00;;;;;15.17;66.11;100068.25;5075809;27;45838;-39
2022/10/01 02:22:58;;;;;;;;;0.00;0.00;;;;;15.16;66.14;100056.03;5078494;27;45620;-39
2022/10/01 02:25:27;;;;;;;;;0.50;0.50;;;;;15.18;65.96;100054.16;5083643;27;45364;-39
2022/10/01 02:28:05;;;;;;;;;0.25;0.25;;;;;15.23;65.70;100057.38;5091069;27;46274;-39
2022/10/01 02:30:34;;;;;;;;;0.00;0.00;;;;;15.25;65.89;100039.69;5064752;27;45815;-39
2022/10/01 02:33:00;;;;;;;;;0.00;0.00;;;;;15.30;65.71;100056.09;5075132;27;45552;-39
2022/10/01 02:35:27;;;;;;;;;0.25;0.25;;;;;15.32;66.23;100062.13;5090994;27;45320;-39
2022/10/01 02:37:55;;;;;;;;;0.00;0.00;;;;;15.33;66.00;100042.75;5081567;27;46420;-39
2022/10/01 02:40:27;;;;;;;;;0.75;0.75;;;;;15.35;65.75;100045.25;5079534;27;45476;-40
2022/10/01 02:42:58;;;;;;;;;0.00;0.00;;;;;15.35;65.27;100038.22;5097393;27;45372;-39
2022/10/01 02:45:25;;;;;;;;;2.00;0.75;;;;;15.36;65.69;100036.41;5097531;27;45632;-39
2022/10/01 02:48:03;;;;;;;;;0.50;0.50;;;;;15.36;65.77;100034.63;5074048;27;63158;-39
2022/10/01 02:50:34;;;;;;;;;0.00;0.00;;;;;15.37;66.05;100041.59;5066456;27;45594;-39
2022/10/01 02:53:08;;;;;;;;;0.00;0.00;;;;;15.38;66.22;100042.44;5071887;27;45574;-40
2022/10/01 02:55:39;;;;;;;;;0.00;0.00;;;;;15.38;65.23;100018.72;5068668;27;45439;-39
2022/10/01 02:58:05;;;;;;;;;0.00;0.00;;;;;15.42;66.22;100008.84;5081216;27;46047;-39
2022/10/01 03:00:31;;;;;;;;;1.75;0.00;;;;;15.43;65.88;100008.75;5065293;27;45501;-39
2022/10/01 03:02:56;;;;;;;;;1.75;0.25;;;;;15.44;66.09;100009.59;5082583;27;45469;-39
2022/10/01 03:05:22;;;;;;;;;0.50;0.50;;;;;15.45;65.89;99998.13;5086496;27;45378;-39
2022/10/01 03:07:47;;;;;;;;;0.00;0.00;;;;;15.47;65.88;100006.78;5079870;27;45898;-39
2022/10/01 03:10:16;;;;;;;;;0.00;0.00;;;;;15.50;66.25;100009.25;5071345;27;45283;-39
2022/10/01 03:12:45;;;;;;;;;0.00;0.00;;;;;15.52;66.74;100002.94;5047892;28;45348;-39
2022/10/01 03:15:15;;;;;;;;;0.25;0.25;;;;;15.54;65.98;99990.50;5086174;27;45427;-39
2022/10/01 03:17:40;;;;;;;;;1.00;0.00;;;;;15.56;66.14;100012.38;5084879;27;45544;-39
2022/10/01 03:20:06;;;;;;;;;0.00;0.00;;;;;15.57;66.11;100006.16;5082426;27;68004;-39
2022/10/01 03:22:32;;;;;;;;;1.00;0.00;;;;;15.59;65.83;100005.22;5079415;27;45360;-39
2022/10/01 03:24:57;;;;;;;;;0.00;0.00;;;;;15.61;66.14;100006.81;5071631;27;45678;-39
2022/10/01 03:27:23;;;;;;;;;0.75;0.00;;;;;15.63;65.94;99998.81;5092613;27;45364;-39
2022/10/01 03:29:48;;;;;;;;;0.00;0.00;;;;;15.66;66.43;100017.09;5068002;27;45773;-39
2022/10/01 03:32:14;;;;;;;;;2.00;0.50;;;;;15.68;66.00;100004.66;5099658;27;66161;-38
2022/10/01 03:34:39;;;;;;;;;0.00;0.00;;;;;15.70;65.08;100002.78;5098247;27;45397;-38
2022/10/01 03:37:05;;;;;;;;;0.00;0.00;;;;;15.69;65.80;99998.47;5091541;27;46056;-38
2022/10/01 03:39:31;;;;;;;;;0.00;0.00;;;;;15.68;66.05;100004.66;5081771;27;45375;-38
2022/10/01 03:41:56;;;;;;;;;0.00;0.00;;;;;15.67;66.04;99992.41;5091081;27;65324;-38
2022/10/01 03:44:22;;;;;;;;;0.00;0.00;;;;;15.70;66.48;99986.94;5093245;27;45302;-38
2022/10/01 03:46:47;;;;;;;;;0.00;0.00;;;;;15.70;66.51;99990.44;5101495;27;48479;-38
2022/10/01 03:49:13;;;;;;;;;0.00;0.00;;;;;15.71;66.39;99996.56;5088145;27;47390;-38
2022/10/01 03:51:38;;;;;;;;;0.75;0.00;;;;;15.73;65.54;99990.25;5068741;27;45287;-39
2022/10/01 03:54:05;;;;;;;;;0.00;0.00;;;;;15.73;66.67;99994.69;5093307;27;59023;-38
2022/10/01 03:56:30;;;;;;;;;0.00;0.00;;;;;15.73;67.18;100003.44;5080453;27;46217;-38
2022/10/01 03:58:56;;;;;;;;;0.00;0.00;;;;;15.70;66.46;99989.59;5070256;27;45328;-38
2022/10/01 04:01:21;;;;;;;;;0.00;0.00;;;;;15.78;67.32;100007.66;5091177;27;45532;-38
2022/10/01 04:03:48;;;;;;;;;0.00;0.00;;;;;15.78;67.28;100034.88;5100441;27;45328;-38
2022/10/01 04:06:13;;;;;;;;;0.75;0.00;;;;;15.80;67.22;100040.91;5101230;27;46168;-39
2022/10/01 04:08:39;;;;;;;;;0.00;0.00;;;;;15.80;66.67;100019.78;5078016;27;45354;-38
2022/10/01 04:11:05;;;;;;;;;0.00;0.00;;;;;15.85;66.92;100038.00;5082108;27;45254;-38
2022/10/01 04:13:31;;;;;;;;;0.00;0.00;;;;;15.89;67.00;100042.13;5090139;27;45383;-39
2022/10/01 04:15:56;;;;;;;;;0.00;0.00;;;;;15.91;66.65;100045.53;5087460;27;45490;-39
2022/10/01 04:18:22;;;;;;;;;0.00;0.00;;;;;15.92;67.11;100052.50;5062937;27;63013;-39
2022/10/01 04:20:47;;;;;;;;;0.00;0.00;;;;;15.95;66.96;100052.31;5081043;27;67948;-39
2022/10/01 04:23:13;;;;;;;;;0.00;0.00;;;;;15.99;66.80;100058.25;5067298;27;45478;-39
2022/10/01 04:25:38;;;;;;;;;0.00;0.00;;;;;16.02;66.85;100079.19;5091214;27;45272;-39
2022/10/01 04:28:05;;;;;;;;;0.00;0.00;;;;;16.05;66.83;100076.38;5079817;27;45329;-39
2022/10/01 04:30:36;;;;;;;;;0.00;0.00;;;;;16.07;67.25;100085.03;5089631;27;45487;-39
2022/10/01 04:33:02;;;;;;;;;0.00;0.00;;;;;16.10;67.33;100088.34;5092165;27;45242;-39
2022/10/01 04:35:28;;;;;;;;;0.00;0.00;;;;;16.12;66.81;100082.97;5097641;27;45387;-40
2022/10/01 04:38:04;;;;;;;;;0.00;0.00;;;;;16.16;67.68;100091.56;5094958;27;45420;-39
2022/10/01 04:40:32;;;;;;;;;0.00;0.00;;;;;16.20;67.22;100090.41;5088727;27;45486;-39
2022/10/01 04:42:58;;;;;;;;;0.00;0.00;;;;;16.22;67.13;100086.75;5083715;27;45695;-39
2022/10/01 04:45:23;;;;;;;;;0.00;0.00;;;;;16.24;67.30;100102.50;5090654;27;75005;-39
2022/10/01 04:47:51;;;;;;;;;0.00;0.00;;;;;16.24;67.11;100098.06;5099237;27;67035;-39
2022/10/01 04:50:17;;;;;;;;;1.00;0.00;;;;;16.26;67.35;100108.53;5089345;27;45379;-39
2022/10/01 04:52:42;;;;;;;;;0.00;0.00;;;;;16.27;67.27;100118.13;5093950;27;45210;-38
2022/10/01 04:55:08;;;;;;;;;0.00;0.00;;;;;16.28;67.30;100120.69;5092829;27;47173;-39
2022/10/01 04:57:34;;;;;;;;;0.00;0.00;;;;;16.30;67.79;100121.44;5076149;27;45550;-39
2022/10/01 05:00:00;;;;;;;;;0.00;0.00;;;;;16.31;67.69;100120.50;5079852;27;45406;-39
2022/10/01 05:02:27;;;;;;;;;0.00;0.00;;;;;16.31;67.36;100119.66;5081167;27;45303;-39
2022/10/01 05:04:53;;;;;;;;;0.00;0.00;;;;;16.33;67.59;100115.13;5081633;27;46464;-39
2022/10/01 05:07:18;;;;;;;;;0.00;0.00;;;;;16.38;67.75;100128.03;5086797;27;45402;-39
2022/10/01 05:09:44;;;;;;;;;0.00;0.00;;;;;16.39;67.21;100130.59;5085388;27;57086;-39
2022/10/01 05:12:09;;;;;;;;;0.00;0.00;;;;;16.41;67.42;100130.50;5088454;27;45517;-39
2022/10/01 05:14:34;;;;;;;;;0.00;0.00;;;;;16.44;67.03;100128.53;5083251;27;45250;-39
2022/10/01 05:17:00;;;;;;;;;0.00;0.00;;;;;16.47;67.15;100124.88;5086114;27;57001;-39
2022/10/01 05:19:27;;;;;;;;;0.00;0.00;;;;;16.48;67.16;100142.38;5095179;27;67620;-39
2022/10/01 05:21:53;;;;;;;;;0.00;0.00;;;;;16.49;67.15;100144.09;5095179;27;45455;-39
2022/10/01 05:24:18;;;;;;;;;0.00;0.00;;;;;16.49;67.15;100139.66;5100779;27;46383;-39
2022/10/01 05:26:44;;;;;;;;;0.00;0.00;;;;;16.51;67.76;100140.41;5100330;27;63524;-39
2022/10/01 05:29:09;;;;;;;;;0.25;0.00;;;;;16.51;67.22;100147.50;5098181;27;45228;-39
2022/10/01 05:31:35;;;;;;;;;0.00;0.00;;;;;16.51;67.57;100148.34;5096351;27;45619;-39
2022/10/01 05:34:00;;;;;;;;;0.00;0.00;;;;;16.50;67.34;100146.66;5099376;27;46240;-39
2022/10/01 05:36:25;;;;;;;;;0.00;0.00;;;;;16.52;67.17;100152.69;5097309;27;45259;-39
2022/10/01 05:38:51;;;;;;;;;0.00;0.00;;;;;16.56;67.06;100161.28;5097313;27;65288;-39
2022/10/01 05:41:17;;;;;;;;;0.00;0.00;;;;;16.57;67.03;100157.66;5094926;27;45399;-39
2022/10/01 05:43:43;;;;;;;;;0.00;0.00;;;;;16.57;66.98;100170.03;5091614;27;46209;-39
2022/10/01 05:46:09;;;;;;;;;0.00;0.00;;;;;16.57;66.34;100173.53;5096972;27;45394;-39
2022/10/01 05:48:36;;;;;;;;;0.00;0.00;;;;;16.57;67.03;100176.16;5100904;27;45439;-39
2022/10/01 05:51:05;;;;;;;;;0.00;0.00;;;;;16.59;67.22;100192.78;5093923;27;45457;-39
2022/10/01 05:53:31;;;;;;;;;0.00;0.00;;;;;16.62;66.91;100191.75;5095725;27;46506;-39
2022/10/01 05:55:59;;;;;;;;;0.00;0.00;;;;;16.62;67.48;100199.66;5094339;27;45499;-39
2022/10/01 05:58:25;;;;;;;;;0.00;0.00;;;;;16.61;67.01;100204.13;5074878;28;45514;-39
2022/10/01 06:00:50;;;;;;;;;0.00;0.00;;;;;16.61;67.03;100201.47;5073923;27;45448;-39
2022/10/01 06:03:15;;;;;;;;;0.00;0.00;;;;;16.61;67.12;100209.41;5097555;27;74638;-39
2022/10/01 06:05:43;;;;;;;;;0.00;0.00;;;;;16.61;66.63;100221.72;5079934;27;58333;-39
2022/10/01 06:08:08;;;;;;;;;1.00;0.00;;;;;16.61;66.71;100219.97;5078380;28;45368;-39
2022/10/01 06:10:35;;;;;;;;;0.00;0.00;;;;;16.61;67.21;100225.25;5093150;27;45165;-39
2022/10/01 06:13:01;;;;;;;;;0.00;0.00;;;;;16.56;66.46;100213.25;5097270;27;45439;-38
2022/10/01 06:15:27;;;;;;;;;2.00;0.00;;;;;16.62;67.00;100231.38;5098734;27;45817;-40
2022/10/01 06:17:53;;;;;;;;;0.00;0.00;;;;;16.62;66.76;100240.13;5092546;27;45422;-39
2022/10/01 06:20:19;;;;;;;;;1.00;0.00;;;;;16.65;66.88;100245.25;5099113;27;62654;-39
2022/10/01 06:22:52;;;;;;;;;1.25;0.00;;;;;16.67;66.52;100242.50;5076489;27;47269;-39
2022/10/01 06:25:18;;;;;;;;;0.00;0.00;;;;;16.68;66.23;100242.44;5083073;27;45581;-38
2022/10/01 06:27:44;;;;;;;;;0.00;0.00;;;;;16.66;66.81;100246.97;5066801;27;45532;-38
2022/10/01 06:30:09;;;;;;;;;0.25;0.00;;;;;16.65;66.17;100242.59;5060124;27;45483;-38
2022/10/01 06:32:35;;;;;;;;;0.00;0.00;;;;;16.67;66.34;100245.16;5077602;28;45251;-38
2022/10/01 06:35:01;;;;;;;;;0.00;0.00;;;;;16.68;66.49;100255.63;5077117;27;66711;-38
2022/10/01 06:37:26;;;;;;;;;1.75;0.00;;;;;16.70;66.15;100248.47;5094423;27;45702;-39
2022/10/01 06:39:52;;;;;;;;;1.75;0.00;;;;;16.73;65.78;100251.84;5096232;27;45462;-39
2022/10/01 06:42:17;;;;;;;;;0.00;0.00;;;;;16.72;65.69;100256.31;5093544;27;65651;-39
2022/10/01 06:44:42;;;;;;;;;0.00;0.00;;;;;16.75;65.31;100265.81;5085134;27;70509;-39
2022/10/01 06:47:08;;;;;;;;;0.00;0.00;;;;;16.74;65.59;100262.34;5081974;27;62031;-39
2022/10/01 06:49:33;;;;;;;;;0.50;0.50;;;;;16.76;65.45;100260.44;5079883;27;67396;-39
2022/10/01 06:54:43;;;;;;;;;3.00;0.00;;;;;16.81;65.38;100258.38;5083252;27;45270;-38
2022/10/01 06:57:09;;;;;;;;;0.75;0.00;;;;;16.83;64.69;100258.28;5108861;27;45263;-39
2022/10/01 06:59:35;;;;;;;;;3.00;0.00;;;;;16.83;64.92;100267.09;5099726;27;45252;-39
2022/10/01 07:02:01;;;;;;;;;0.00;0.00;;;;;16.83;64.72;100264.44;5066154;28;45510;-39
2022/10/01 07:04:27;;;;;;;;;1.25;0.75;;;;;16.85;64.72;100281.06;5084241;27;45544;-39
2022/10/01 07:06:54;;;;;;;;;0.00;0.00;;;;;16.86;64.79;100282.78;5084156;27;66353;-39
2022/10/01 07:09:22;;;;;;;;;0.00;0.00;;;;;16.87;64.54;100279.19;5098248;27;45524;-40
2022/10/01 07:11:48;;;;;;;;;2.25;0.25;;;;;16.87;64.37;100281.84;5097858;27;45231;-41
2022/10/01 07:14:13;;;;;;;;;2.00;0.00;;;;;16.88;64.41;100301.19;5097943;27;45359;-41
2022/10/01 07:16:39;;;;;;;;;2.75;1.00;;;;;16.89;64.12;100295.81;5081389;27;45265;-41
2022/10/01 07:19:04;;;;;;;;;1.00;0.75;;;;;16.92;64.10;100309.78;5096335;27;45532;-41
2022/10/01 07:21:29;;;;;;;;;3.00;0.00;;;;;16.92;63.45;100315.91;5091877;27;63438;-41
2022/10/01 07:23:55;;;;;;;;;0.50;0.50;;;;;16.92;63.42;100320.34;5095907;27;68812;-41
2022/10/01 07:26:20;;;;;;;;;2.00;0.00;;;;;16.94;63.59;100319.28;5075548;28;59064;-43
2022/10/01 07:28:45;;;;;;;;;2.00;0.25;;;;;16.98;63.35;100327.91;5083402;27;71938;-45
2022/10/01 07:31:11;;;;;;;;;0.00;0.00;;;;;17.00;63.45;100326.88;5080946;27;70764;-41
2022/10/01 07:33:40;;;;;;;;;1.25;1.00;;;;;17.02;63.35;100332.91;5082974;27;45529;-43
2022/10/01 07:36:07;;;;;;;;;1.50;1.00;;;;;17.05;63.21;100335.38;5088337;27;45334;-47
2022/10/01 07:38:33;;;;;;;;;2.50;0.25;;;;;17.12;63.29;100343.78;5076928;28;45602;-47
2022/10/01 07:41:01;;;;;;;;;0.25;0.25;;;;;17.14;63.40;100339.25;5094007;27;45282;-49
2022/10/01 07:43:27;;;;;;;;;0.00;0.00;;;;;17.18;63.69;100347.88;5084397;27;45464;-45
2022/10/01 07:45:53;;;;;;;;;1.00;1.00;;;;;17.18;63.90;100343.41;5075300;27;45516;-47
2022/10/01 07:48:19;;;;;;;;;1.00;1.00;;;;;17.23;63.54;100349.28;5095302;27;45299;-48
2022/10/01 07:50:45;;;;;;;;;0.00;0.00;;;;;17.25;63.78;100357.97;5095588;27;45517;-43
2022/10/01 07:53:10;;;;;;;;;2.75;1.00;;;;;17.29;63.57;100355.13;5089523;27;45465;-43
2022/10/01 07:55:36;;;;;;;;;8.00;3.00;;;;;17.30;63.48;100357.69;5097265;27;45323;-42
2022/10/01 07:58:02;;;;;;;;;9.75;6.00;;;;;17.35;63.44;100365.31;5048514;27;45435;-42
2022/10/01 08:00:29;;;;;;;;;5.00;2.00;;;;;17.38;63.07;100362.50;5074377;27;45395;-44
2022/10/01 08:02:55;;;;;;;;;2.00;2.00;;;;;17.38;62.68;100362.50;5085452;27;45226;-42
2022/10/01 08:05:29;;;;;;;;;4.75;1.00;;;;;17.41;62.41;100383.47;5096601;27;45377;-40
2022/10/01 08:08:06;;;;;;;;;0.75;0.75;;;;;17.45;62.29;100382.34;5069360;28;45589;-43
2022/10/01 08:10:35;;;;;;;;;2.50;0.00;;;;;17.49;62.29;100393.59;5085474;27;45428;-43
2022/10/01 08:13:14;;;;;;;;;2.75;0.00;;;;;17.50;62.11;100384.72;5089193;27;45642;-41
2022/10/01 08:15:44;;;;;;;;;3.50;0.75;;;;;17.51;62.21;100384.63;5090721;27;45538;-43
2022/10/01 08:18:10;;;;;;;;;2.00;1.00;;;;;17.54;61.99;100394.16;5102548;27;45251;-42
2022/10/01 08:20:38;;;;;;;;;2.75;1.00;;;;;17.57;61.65;100402.75;5100366;27;45197;-43
2022/10/01 08:23:05;;;;;;;;;5.00;0.75;;;;;17.60;61.60;100401.69;5101172;27;45447;-44
2022/10/01 08:25:30;;;;;;;;;1.25;0.75;;;;;17.63;61.28;100406.81;5102582;27;45295;-41
2022/10/01 08:27:56;;;;;;;;;1.50;1.00;;;;;17.65;61.17;100407.56;5094512;27;45386;-43
2022/10/01 08:30:21;;;;;;;;;2.00;2.00;;;;;17.67;61.31;100400.41;5101657;27;46076;-43
2022/10/01 08:32:46;;;;;;;;;1.00;1.00;;;;;17.64;61.31;100397.94;5101678;27;51533;-43
2022/10/01 08:35:12;;;;;;;;;4.00;2.00;;;;;17.71;60.43;100406.34;5101620;27;58280;-44
2022/10/01 08:37:37;;;;;;;;;1.25;0.50;;;;;17.73;60.94;100417.69;5094274;27;66020;-42
2022/10/01 08:40:03;;;;;;;;;4.00;1.25;;;;;17.71;60.59;100415.13;5075345;27;52453;-42
2022/10/01 08:42:52;;;;;;;;;1.50;1.00;;;;;17.74;60.57;100424.66;5083760;27;45395;-42
2022/10/01 08:45:44;;;;;;;;;3.25;1.00;;;;;17.74;60.09;100429.97;5076776;27;45384;-48
2022/10/01 08:48:50;;;;;;;;;4.00;1.00;;;;;17.73;59.92;100434.41;5101700;27;45443;-44
2022/10/01 08:51:18;;;;;;;;;4.50;2.00;;;;;17.74;60.18;100441.41;5080096;28;45246;-42
2022/10/01 08:53:52;;;;;;;;;3.50;2.00;;;;;17.78;59.78;100448.22;5100784;27;45550;-43
2022/10/01 08:56:43;;;;;;;;;2.00;1.00;;;;;17.80;59.88;100451.63;5102098;27;45289;-42
2022/10/01 08:59:27;;;;;;;;;5.50;1.25;;;;;17.82;59.54;100457.66;5083893;27;45486;-44
2022/10/01 09:01:54;;;;;;;;;3.50;1.00;;;;;17.84;59.71;100458.41;5094377;27;46300;-42
2022/10/01 09:04:19;;;;;;;;;3.00;2.00;;;;;17.87;59.91;100464.53;5089847;27;45953;-42
2022/10/01 09:06:51;;;;;;;;;3.00;1.00;;;;;17.88;59.66;100467.03;5100657;27;53234;-43
2022/10/01 09:09:43;;;;;;;;;1.50;1.50;;;;;17.90;59.69;100470.47;5081984;27;46402;-43
2022/10/01 09:12:09;;;;;;;;;3.00;0.25;;;;;17.93;59.95;100475.56;5066807;27;46440;-41
2022/10/01 09:14:53;;;;;;;;;3.00;1.50;;;;;17.91;59.89;100477.44;5101733;27;45372;-42
2022/10/01 09:17:41;;;;;;;;;7.50;1.00;;;;;17.92;59.59;100479.16;5083332;27;45505;-43
2022/10/01 09:20:26;;;;;;;;;4.25;1.50;;;;;17.92;59.64;100479.16;5093036;27;45318;-42
2022/10/01 09:23:16;;;;;;;;;4.00;1.00;;;;;17.93;59.90;100483.50;5101608;27;46190;-42
2022/10/01 09:25:42;;;;;;;;;6.75;1.75;;;;;17.96;59.90;100480.66;5101564;27;45243;-43
2022/10/01 09:28:14;;;;;;;;;8.25;1.50;;;;;17.99;60.07;100495.53;5083282;27;45296;-42
2022/10/01 09:31:03;;;;;;;;;5.25;2.50;;;;;17.99;59.80;100491.06;5083145;27;45260;-44
2022/10/01 09:33:35;;;;;;;;;5.00;3.25;;;;;18.02;59.67;100501.50;5084963;27;45262;-44
2022/10/01 09:36:10;;;;;;;;;1.75;1.25;;;;;18.06;59.71;100502.16;5098465;27;45364;-47
2022/10/01 09:38:38;;;;;;;;;3.25;2.00;;;;;18.09;59.69;100503.75;5089885;27;45422;-42
2022/10/01 09:41:05;;;;;;;;;6.75;2.00;;;;;18.13;59.79;100505.25;5100449;27;45530;-46
2022/10/01 09:43:32;;;;;;;;;6.00;1.25;;;;;18.19;59.83;100510.16;5082449;27;46167;-43
2022/10/01 09:45:58;;;;;;;;;4.50;1.00;;;;;18.23;59.46;100521.41;5079453;28;45559;-43
2022/10/01 09:48:54;;;;;;;;;2.00;1.00;;;;;18.23;58.87;100519.63;5062475;28;45527;-42
2022/10/01 09:51:28;;;;;;;;;5.50;2.00;;;;;18.22;59.36;100517.94;5079348;27;45309;-41
2022/10/01 09:54:26;;;;;;;;;2.50;2.50;;;;;18.23;59.06;100516.97;5092342;27;46573;-45
2022/10/01 09:57:08;;;;;;;;;5.00;4.00;;;;;18.29;59.00;100526.31;5079369;28;45824;-44
2022/10/01 09:59:48;;;;;;;;;6.25;3.00;;;;;18.33;59.07;100522.56;5080108;27;45385;-42
2022/10/01 10:02:40;;;;;;;;;4.50;3.00;;;;;18.38;58.97;100531.91;5079138;28;45466;-44
2022/10/01 10:05:16;;;;;;;;;4.00;3.00;;;;;18.43;59.17;100538.72;5096245;27;45433;-41
2022/10/01 10:07:51;;;;;;;;;11.00;6.00;;;;;18.48;58.93;100540.13;5082416;27;45260;-42
2022/10/01 10:10:20;;;;;;;;;9.75;3.75;;;;;18.49;58.11;100536.53;5076130;28;45324;-45
2022/10/01 10:12:47;;;;;;;;;7.50;4.75;;;;;18.47;58.13;100538.44;5099388;27;45321;-42
2022/10/01 10:15:18;;;;;;;;;6.50;4.75;;;;;18.50;57.96;100540.91;5056961;28;46026;-44
2022/10/01 10:17:47;;;;;;;;;4.50;4.50;;;;;18.53;57.91;100542.47;5069478;27;45855;-44
2022/10/01 10:20:27;;;;;;;;;8.50;3.00;;;;;18.54;57.76;100542.38;5082592;27;45363;-43
2022/10/01 10:22:53;;;;;;;;;4.25;4.00;;;;;18.62;58.06;100551.66;5078987;28;45306;-41
2022/10/01 10:25:23;;;;;;;;;4.25;2.25;;;;;18.69;57.61;100552.97;5076765;27;46401;-43
2022/10/01 10:27:54;;;;;;;;;5.75;2.75;;;;;18.77;56.98;100556.81;5071185;27;45745;-44
2022/10/01 10:30:23;;;;;;;;;6.50;4.00;;;;;18.84;57.36;100556.44;5080448;27;45672;-41
2022/10/01 10:32:48;;;;;;;;;6.25;2.50;;;;;18.91;57.29;100555.09;5100193;27;45596;-41
2022/10/01 10:35:18;;;;;;;;;6.00;2.50;;;;;18.99;56.99;100560.75;5081504;27;45501;-43
2022/10/01 10:37:49;;;;;;;;;3.50;3.25;;;;;19.05;56.25;100562.16;5090174;27;45725;-44
2022/10/01 10:40:19;;;;;;;;;5.00;2.00;;;;;19.11;56.41;100564.44;5098334;27;45423;-42
2022/10/01 10:42:54;;;;;;;;;3.25;3.25;;;;;19.17;56.12;100574.63;5078510;27;45428;-41
2022/10/01 10:45:28;;;;;;;;;9.25;3.25;;;;;19.25;56.13;100580.28;5063422;28;45321;-42
2022/10/01 10:47:54;;;;;;;;;8.50;3.25;;;;;19.28;56.23;100569.47;5078078;27;45271;-43
2022/10/01 10:50:25;;;;;;;;;3.25;2.00;;;;;19.33;55.67;100577.13;5098083;27;56535;-42
2022/10/01 10:52:51;;;;;;;;;7.25;2.75;;;;;19.37;55.64;100578.63;5084873;27;45477;-41
2022/10/01 10:55:29;;;;;;;;;2.75;2.00;;;;;19.44;55.52;100571.97;5081008;27;66079;-42
2022/10/01 10:57:54;;;;;;;;;9.00;4.75;;;;;19.50;55.21;100583.97;5081834;27;45699;-42
2022/10/01 11:00:24;;;;;;;;;4.25;3.00;;;;;19.59;55.12;100582.50;5074781;28;45331;-42
2022/10/01 11:03:03;;;;;;;;;6.50;3.50;;;;;19.66;54.66;100589.94;5076903;28;45359;-43
2022/10/01 11:05:33;;;;;;;;;8.25;5.25;;;;;19.72;54.21;100588.66;5093176;27;45319;-42
2022/10/01 11:08:02;;;;;;;;;7.75;5.00;;;;;19.77;54.35;100591.06;5078018;28;45435;-42
2022/10/01 11:10:48;;;;;;;;;8.25;6.50;;;;;19.83;54.25;100587.97;5094593;27;45307;-42
2022/10/01 11:13:26;;;;;;;;;8.50;6.25;;;;;19.88;53.58;100600.00;5099965;27;45227;-43
2022/10/01 11:16:03;;;;;;;;;7.25;4.00;;;;;19.92;54.32;100603.31;5099574;27;46124;-43
2022/10/01 11:19:00;;;;;;;;;7.75;5.00;;;;;19.92;52.48;100604.13;5096651;27;45382;-43
2022/10/01 11:21:35;;;;;;;;;10.00;7.00;;;;;19.96;52.13;100602.13;5077061;27;45334;-42
2022/10/01 11:24:14;;;;;;;;;11.75;5.25;;;;;19.99;52.47;100606.34;5097579;27;45270;-44
2022/10/01 11:27:21;;;;;;;;;4.75;4.75;;;;;20.01;52.94;100601.78;5099570;27;46384;-43
2022/10/01 11:30:06;;;;;;;;;5.00;3.00;;;;;20.04;52.33;100602.47;5077786;28;45577;-44
2022/10/01 11:32:46;;;;;;;;;8.25;4.50;;;;;20.09;52.68;100602.13;5088719;27;45273;-43
2022/10/01 11:35:25;;;;;;;;;3.25;3.25;;;;;20.10;51.82;100603.84;5089315;27;45427;-44
2022/10/01 11:38:09;;;;;;;;;7.00;5.75;;;;;20.09;51.47;100613.59;5099177;27;46165;-42
2022/10/01 11:40:39;;;;;;;;;7.25;2.25;;;;;20.10;50.49;100617.13;5077659;28;45712;-42